Time;durP1;ratioP1;P1;durP2;ratioP2;P2;SDS_P1;SDS_P2;PMS_P1;PMS_P2;Temp;Humidity;BMP_temperature;BMP_pressure;BME280_temperature;BME280_humidity;BME280_pressure;Samples;Min_cycle;Max_cycle;Signal;HPM_P1;HPM_P2
2020/12/28 00:01:55;;;;;;;8.97;5.00;;;;;;;;;;5070702;28;20536;-65
2020/12/28 00:04:21;;;;;;;7.57;4.50;;;;;;;;;;5054125;28;20507;-65
2020/12/28 00:06:48;;;;;;;5.37;4.47;;;;;;;;;;5056106;28;20794;-65
2020/12/28 00:09:14;;;;;;;6.00;4.93;;;;;;;;;;5072625;28;20409;-65
2020/12/28 00:11:40;;;;;;;8.23;5.03;;;;;;;;;;5072691;28;20449;-64
2020/12/28 00:14:06;;;;;;;8.93;5.17;;;;;;;;;;5074049;28;20433;-64
2020/12/28 00:16:33;;;;;;;12.17;5.23;;;;;;;;;;5071642;28;20402;-64
2020/12/28 00:18:59;;;;;;;8.00;4.80;;;;;;;;;;5073611;28;20406;-64
2020/12/28 00:21:25;;;;;;;10.23;5.40;;;;;;;;;;5073604;28;20496;-64
2020/12/28 00:23:51;;;;;;;7.03;4.50;;;;;;;;;;5072099;28;20491;-64
2020/12/28 00:26:17;;;;;;;7.13;4.47;;;;;;;;;;5072101;28;20506;-64
2020/12/28 00:28:43;;;;;;;7.23;4.07;;;;;;;;;;5072674;28;20459;-64
2020/12/28 00:31:09;;;;;;;6.93;5.03;;;;;;;;;;5071916;28;20417;-64
2020/12/28 00:33:36;;;;;;;6.77;4.73;;;;;;;;;;5071827;28;20441;-64
2020/12/28 00:36:02;;;;;;;7.57;5.13;;;;;;;;;;5073501;28;20956;-64
2020/12/28 00:38:27;;;;;;;9.47;4.80;;;;;;;;;;5069149;28;20511;-64
2020/12/28 00:40:53;;;;;;;6.20;5.40;;;;;;;;;;5067888;28;20449;-64
2020/12/28 00:43:20;;;;;;;9.00;5.77;;;;;;;;;;5067350;28;20457;-66
2020/12/28 00:45:46;;;;;;;7.90;5.50;;;;;;;;;;5073744;28;20738;-65
2020/12/28 00:48:13;;;;;;;9.43;5.70;;;;;;;;;;5071867;28;20483;-65
2020/12/28 00:50:39;;;;;;;9.60;5.40;;;;;;;;;;5071393;28;20405;-65
2020/12/28 00:53:05;;;;;;;10.57;5.77;;;;;;;;;;5071485;28;20444;-65
2020/12/28 00:55:31;;;;;;;8.43;5.73;;;;;;;;;;5072727;28;20409;-65
2020/12/28 00:57:57;;;;;;;7.50;5.70;;;;;;;;;;5071723;28;20525;-65
2020/12/28 01:00:23;;;;;;;7.80;5.70;;;;;;;;;;5071563;28;20831;-65
2020/12/28 01:02:49;;;;;;;7.90;4.77;;;;;;;;;;5071840;28;20433;-65
2020/12/28 01:05:15;;;;;;;9.43;5.53;;;;;;;;;;5072680;28;20448;-64
2020/12/28 01:07:41;;;;;;;7.73;6.00;;;;;;;;;;5071780;28;20489;-65
2020/12/28 01:10:07;;;;;;;10.20;5.27;;;;;;;;;;5072202;28;20898;-65
2020/12/28 01:12:33;;;;;;;11.23;6.17;;;;;;;;;;5071983;28;20506;-65
2020/12/28 01:14:59;;;;;;;9.30;5.00;;;;;;;;;;5072734;28;20551;-64
2020/12/28 01:17:25;;;;;;;8.30;5.90;;;;;;;;;;5071298;28;20436;-64
2020/12/28 01:19:51;;;;;;;10.17;5.67;;;;;;;;;;5072723;28;20398;-65
2020/12/28 01:22:17;;;;;;;8.20;5.70;;;;;;;;;;5071054;28;20405;-64
2020/12/28 01:24:43;;;;;;;8.57;5.13;;;;;;;;;;5053335;28;20465;-65
2020/12/28 01:27:09;;;;;;;10.13;6.10;;;;;;;;;;5052503;28;20421;-65
2020/12/28 01:29:35;;;;;;;7.57;4.97;;;;;;;;;;5052319;28;20430;-65
2020/12/28 01:32:01;;;;;;;8.70;5.43;;;;;;;;;;5054418;28;20433;-64
2020/12/28 01:34:27;;;;;;;10.77;5.20;;;;;;;;;;5071129;28;20456;-65
2020/12/28 01:36:53;;;;;;;5.90;4.70;;;;;;;;;;5071381;28;20420;-64
2020/12/28 01:39:19;;;;;;;5.77;4.30;;;;;;;;;;5071066;28;20468;-65
2020/12/28 01:41:45;;;;;;;8.73;5.33;;;;;;;;;;5072434;28;20401;-65
2020/12/28 01:44:11;;;;;;;8.40;5.40;;;;;;;;;;5057643;28;20470;-64
2020/12/28 01:46:37;;;;;;;6.37;4.93;;;;;;;;;;5052671;28;20504;-65
2020/12/28 01:49:03;;;;;;;12.20;4.57;;;;;;;;;;5064077;28;20795;-65
2020/12/28 01:51:29;;;;;;;8.00;4.80;;;;;;;;;;5072729;28;20426;-65
2020/12/28 01:53:55;;;;;;;9.33;4.53;;;;;;;;;;5070981;28;20853;-64
2020/12/28 01:56:21;;;;;;;6.20;4.17;;;;;;;;;;5072372;28;20770;-65
2020/12/28 01:58:48;;;;;;;9.63;5.10;;;;;;;;;;5071319;28;20436;-64
2020/12/28 02:01:15;;;;;;;8.20;3.90;;;;;;;;;;5072349;28;20407;-65
2020/12/28 02:03:42;;;;;;;8.07;5.10;;;;;;;;;;5070881;28;20503;-65
2020/12/28 02:06:08;;;;;;;8.20;4.80;;;;;;;;;;5072124;28;20401;-65
2020/12/28 02:08:34;;;;;;;6.63;4.67;;;;;;;;;;5070862;28;20474;-65
2020/12/28 02:11:00;;;;;;;8.70;5.20;;;;;;;;;;5066567;28;20457;-65
2020/12/28 02:13:26;;;;;;;10.60;4.83;;;;;;;;;;5070823;28;20981;-65
2020/12/28 02:15:53;;;;;;;9.17;5.10;;;;;;;;;;5072010;28;20932;-65
2020/12/28 02:18:20;;;;;;;7.33;3.60;;;;;;;;;;5071055;28;20452;-65
2020/12/28 02:20:47;;;;;;;7.03;4.73;;;;;;;;;;5071869;28;20439;-65
2020/12/28 02:23:13;;;;;;;7.87;4.33;;;;;;;;;;5095328;22;20456;-71
2020/12/28 02:25:39;;;;;;;11.07;5.50;;;;;;;;;;5075994;28;20496;-71
2020/12/28 02:28:05;;;;;;;6.60;5.00;;;;;;;;;;5058061;28;20486;-71
2020/12/28 02:30:31;;;;;;;7.70;4.43;;;;;;;;;;5076751;28;20751;-71
2020/12/28 02:32:57;;;;;;;5.70;3.90;;;;;;;;;;5075208;28;20450;-69
2020/12/28 02:35:23;;;;;;;8.87;4.67;;;;;;;;;;5076196;28;20486;-70
2020/12/28 02:37:49;;;;;;;7.70;4.60;;;;;;;;;;5076176;28;20413;-69
2020/12/28 02:40:15;;;;;;;7.20;5.10;;;;;;;;;;5056504;28;20799;-70
2020/12/28 02:42:41;;;;;;;5.90;4.23;;;;;;;;;;5056381;28;20455;-70
2020/12/28 02:45:07;;;;;;;9.87;4.70;;;;;;;;;;5071455;28;20790;-70
2020/12/28 02:47:33;;;;;;;9.03;5.20;;;;;;;;;;5071851;28;20905;-70
2020/12/28 02:49:59;;;;;;;9.93;4.80;;;;;;;;;;5091487;28;20477;-70
2020/12/28 02:52:25;;;;;;;10.90;4.43;;;;;;;;;;5096083;28;20761;-69
2020/12/28 02:54:51;;;;;;;9.03;4.87;;;;;;;;;;5071876;28;20441;-70
2020/12/28 02:57:17;;;;;;;8.17;4.50;;;;;;;;;;5076007;28;20416;-70
2020/12/28 02:59:43;;;;;;;11.63;4.63;;;;;;;;;;5083894;28;20911;-70
2020/12/28 03:02:09;;;;;;;4.67;3.60;;;;;;;;;;5089923;28;20429;-70
2020/12/28 03:04:35;;;;;;;9.03;4.00;;;;;;;;;;5082163;28;20605;-71
2020/12/28 03:07:01;;;;;;;9.43;4.70;;;;;;;;;;5096090;28;20495;-71
2020/12/28 03:09:27;;;;;;;5.27;3.47;;;;;;;;;;5094030;28;20446;-70
2020/12/28 03:11:53;;;;;;;7.87;4.93;;;;;;;;;;5095880;28;20401;-70
2020/12/28 03:14:19;;;;;;;6.20;3.80;;;;;;;;;;5093628;28;20996;-70
2020/12/28 03:16:45;;;;;;;6.30;3.70;;;;;;;;;;5095707;28;20408;-70
2020/12/28 03:19:11;;;;;;;6.20;3.67;;;;;;;;;;5093709;28;20451;-70
2020/12/28 03:21:37;;;;;;;6.47;3.87;;;;;;;;;;5095643;28;20404;-70
2020/12/28 03:24:03;;;;;;;13.70;4.60;;;;;;;;;;5093291;28;20491;-70
2020/12/28 03:26:29;;;;;;;6.40;4.63;;;;;;;;;;5095537;28;20438;-70
2020/12/28 03:28:55;;;;;;;6.67;3.60;;;;;;;;;;5091339;28;20487;-71
2020/12/28 03:31:21;;;;;;;5.20;3.30;;;;;;;;;;5095408;28;20397;-70
2020/12/28 03:33:47;;;;;;;7.17;4.00;;;;;;;;;;5093411;28;20892;-71
2020/12/28 03:36:13;;;;;;;6.47;3.90;;;;;;;;;;5094988;28;20426;-70
2020/12/28 03:38:39;;;;;;;5.70;3.80;;;;;;;;;;5095282;28;20912;-70
2020/12/28 03:41:05;;;;;;;5.13;3.80;;;;;;;;;;5074382;28;20511;-71
2020/12/28 03:43:31;;;;;;;6.70;4.03;;;;;;;;;;5075090;28;20457;-71
2020/12/28 03:45:57;;;;;;;7.47;3.83;;;;;;;;;;5070439;28;20502;-71
2020/12/28 03:48:23;;;;;;;4.37;3.67;;;;;;;;;;5072435;28;20512;-71
2020/12/28 03:50:49;;;;;;;4.13;3.53;;;;;;;;;;5074098;28;20453;-71
2020/12/28 03:53:15;;;;;;;4.77;3.60;;;;;;;;;;5074752;28;20897;-71
2020/12/28 03:55:41;;;;;;;4.70;3.03;;;;;;;;;;5059511;28;20553;-71
2020/12/28 03:58:07;;;;;;;5.80;3.37;;;;;;;;;;5055049;28;20449;-71
2020/12/28 04:00:33;;;;;;;5.03;3.73;;;;;;;;;;5064984;28;20475;-75
2020/12/28 04:02:59;;;;;;;6.33;4.10;;;;;;;;;;5072915;28;20417;-72
2020/12/28 04:05:25;;;;;;;6.60;4.20;;;;;;;;;;5084846;28;20822;-71
2020/12/28 04:07:51;;;;;;;5.97;3.50;;;;;;;;;;5094779;28;20909;-71
2020/12/28 04:10:17;;;;;;;7.83;4.37;;;;;;;;;;5084239;28;20484;-71
2020/12/28 04:12:43;;;;;;;4.90;3.70;;;;;;;;;;5074525;28;20800;-71
2020/12/28 04:15:09;;;;;;;5.67;3.70;;;;;;;;;;5073262;28;20453;-71
2020/12/28 04:17:35;;;;;;;5.77;3.73;;;;;;;;;;5074520;28;20454;-71
2020/12/28 04:20:01;;;;;;;7.30;3.70;;;;;;;;;;5073049;28;20796;-71
2020/12/28 04:22:27;;;;;;;6.07;3.90;;;;;;;;;;5074259;28;20458;-71
2020/12/28 04:24:53;;;;;;;5.30;3.43;;;;;;;;;;5072912;28;20549;-71
2020/12/28 04:27:19;;;;;;;4.73;3.40;;;;;;;;;;5074147;28;20437;-72
2020/12/28 04:29:45;;;;;;;6.90;4.60;;;;;;;;;;5071897;28;20897;-70
2020/12/28 04:32:11;;;;;;;5.80;3.93;;;;;;;;;;5053435;28;20467;-71
2020/12/28 04:34:37;;;;;;;6.10;3.87;;;;;;;;;;5056469;28;20518;-71
2020/12/28 04:37:03;;;;;;;7.77;3.93;;;;;;;;;;5073930;28;20460;-72
2020/12/28 04:39:29;;;;;;;6.53;4.20;;;;;;;;;;5073152;28;20442;-70
2020/12/28 04:41:55;;;;;;;7.80;4.73;;;;;;;;;;5073832;28;20405;-71
2020/12/28 04:44:21;;;;;;;9.13;3.90;;;;;;;;;;5072338;28;20448;-70
2020/12/28 04:46:47;;;;;;;5.50;3.43;;;;;;;;;;5072093;28;20491;-71
2020/12/28 04:49:13;;;;;;;6.77;3.90;;;;;;;;;;5069591;28;20512;-71
2020/12/28 04:51:39;;;;;;;6.33;3.90;;;;;;;;;;5054227;28;20858;-71
2020/12/28 04:54:05;;;;;;;5.70;3.90;;;;;;;;;;5053883;28;20512;-72
2020/12/28 04:56:35;;;;;;;7.13;3.93;;;;;;;;;;5087993;28;20424;-70
2020/12/28 04:59:01;;;;;;;9.27;3.73;;;;;;;;;;5093816;28;20403;-71
2020/12/28 05:01:27;;;;;;;9.00;4.47;;;;;;;;;;5091827;28;20432;-72
2020/12/28 05:03:54;;;;;;;8.87;4.23;;;;;;;;;;5093684;28;20600;-72
2020/12/28 05:06:20;;;;;;;9.53;3.47;;;;;;;;;;5091870;28;20456;-72
2020/12/28 05:08:46;;;;;;;6.60;3.87;;;;;;;;;;5092597;28;20447;-71
2020/12/28 05:11:13;;;;;;;12.30;4.30;;;;;;;;;;5091807;28;20480;-71
2020/12/28 05:13:40;;;;;;;7.00;4.07;;;;;;;;;;5093947;28;20423;-72
2020/12/28 05:16:06;;;;;;;7.50;4.43;;;;;;;;;;5086212;28;20511;-70
2020/12/28 05:18:33;;;;;;;5.50;3.60;;;;;;;;;;5073324;28;20401;-71
2020/12/28 05:21:00;;;;;;;6.63;3.70;;;;;;;;;;5084363;28;20424;-71
2020/12/28 05:23:27;;;;;;;6.67;3.83;;;;;;;;;;5093319;28;20408;-71
2020/12/28 05:25:53;;;;;;;6.43;3.73;;;;;;;;;;5091949;28;20451;-71
2020/12/28 05:28:25;;;;;;;6.90;3.80;;;;;;;;;;5093770;28;20396;-71
2020/12/28 05:30:51;;;;;;;6.30;3.37;;;;;;;;;;5091701;28;20424;-71
2020/12/28 05:33:18;;;;;;;11.90;4.17;;;;;;;;;;5091763;28;20465;-71
2020/12/28 05:35:45;;;;;;;4.60;3.50;;;;;;;;;;5092064;28;20855;-71
2020/12/28 05:38:12;;;;;;;6.97;3.90;;;;;;;;;;5093950;28;20400;-71
2020/12/28 05:40:38;;;;;;;4.87;3.17;;;;;;;;;;5091976;28;20442;-71
2020/12/28 05:43:04;;;;;;;9.00;4.30;;;;;;;;;;5081246;28;20421;-71
2020/12/28 05:45:31;;;;;;;3.83;3.53;;;;;;;;;;5078993;28;20463;-72
2020/12/28 05:47:58;;;;;;;13.47;3.33;;;;;;;;;;5093434;28;20404;-71
2020/12/28 05:50:25;;;;;;;4.77;3.27;;;;;;;;;;5077358;28;20474;-71
2020/12/28 05:52:52;;;;;;;5.10;3.67;;;;;;;;;;5093293;28;20416;-71
2020/12/28 05:55:20;;;;;;;5.80;4.00;;;;;;;;;;5087323;28;20461;-71
2020/12/28 05:57:46;;;;;;;5.10;3.47;;;;;;;;;;5076577;28;20469;-71
2020/12/28 06:00:12;;;;;;;4.40;2.93;;;;;;;;;;5079366;28;20932;-71
2020/12/28 06:02:39;;;;;;;5.00;3.27;;;;;;;;;;5097276;28;20477;-71
2020/12/28 06:05:07;;;;;;;4.13;3.03;;;;;;;;;;5095059;28;20479;-71
2020/12/28 06:07:34;;;;;;;4.67;3.33;;;;;;;;;;5097426;28;20404;-71
2020/12/28 06:10:00;;;;;;;5.63;3.23;;;;;;;;;;5095575;28;20404;-70
2020/12/28 06:12:26;;;;;;;5.17;3.40;;;;;;;;;;5097199;28;20483;-71
2020/12/28 06:14:53;;;;;;;7.13;4.10;;;;;;;;;;5093622;28;20545;-70
2020/12/28 06:17:19;;;;;;;10.23;3.33;;;;;;;;;;5056795;28;20908;-71
2020/12/28 06:19:45;;;;;;;5.13;3.07;;;;;;;;;;5056718;28;20444;-71
2020/12/28 06:22:24;;;;;;;7.10;3.20;;;;;;;;;;5076193;28;20966;-71
2020/12/28 06:24:59;;;;;;;6.30;3.20;;;;;;;;;;5096708;28;20456;-71
2020/12/28 06:27:26;;;;;;;5.20;3.20;;;;;;;;;;5056547;28;20394;-71
2020/12/28 06:29:53;;;;;;;7.77;3.43;;;;;;;;;;5056461;28;20416;-69
2020/12/28 06:32:19;;;;;;;6.57;4.10;;;;;;;;;;5095408;28;20412;-71
2020/12/28 06:34:45;;;;;;;5.17;3.67;;;;;;;;;;5096606;28;20434;-71
2020/12/28 06:37:12;;;;;;;7.23;4.80;;;;;;;;;;5094491;28;20432;-71
2020/12/28 06:39:38;;;;;;;10.07;4.93;;;;;;;;;;5096642;28;20412;-71
2020/12/28 06:42:11;;;;;;;6.83;5.00;;;;;;;;;;5094597;28;20435;-71
2020/12/28 06:44:37;;;;;;;8.83;4.87;;;;;;;;;;5096266;28;20447;-71
2020/12/28 06:47:15;;;;;;;8.83;5.07;;;;;;;;;;5094463;28;20497;-71
2020/12/28 06:49:41;;;;;;;11.20;3.73;;;;;;;;;;5076333;28;20426;-70
2020/12/28 06:52:07;;;;;;;8.10;4.07;;;;;;;;;;5073118;28;20474;-70
2020/12/28 06:54:33;;;;;;;7.37;5.53;;;;;;;;;;5075901;28;20985;-71
2020/12/28 06:57:06;;;;;;;6.10;4.67;;;;;;;;;;5090413;28;20511;-71
2020/12/28 06:59:33;;;;;;;8.77;5.03;;;;;;;;;;5077982;28;20464;-71
2020/12/28 07:01:59;;;;;;;7.33;4.70;;;;;;;;;;5094049;28;20447;-71
2020/12/28 07:04:26;;;;;;;7.27;4.20;;;;;;;;;;5095870;28;20533;-71
2020/12/28 07:06:59;;;;;;;6.43;4.40;;;;;;;;;;5094264;28;20765;-70
2020/12/28 07:09:25;;;;;;;9.90;4.23;;;;;;;;;;5095355;28;20437;-71
2020/12/28 07:11:51;;;;;;;7.27;4.77;;;;;;;;;;5093972;28;20428;-71
2020/12/28 07:14:19;;;;;;;16.13;6.00;;;;;;;;;;5095846;28;20877;-71
2020/12/28 07:16:45;;;;;;;9.07;4.97;;;;;;;;;;5080491;28;20433;-71
2020/12/28 07:19:11;;;;;;;8.90;5.13;;;;;;;;;;5075787;28;20412;-71
2020/12/28 07:21:37;;;;;;;11.63;4.97;;;;;;;;;;5073699;28;20440;-70
2020/12/28 07:24:06;;;;;;;8.33;4.10;;;;;;;;;;5074255;28;20500;-71
2020/12/28 07:26:33;;;;;;;7.20;5.13;;;;;;;;;;5080061;28;20416;-70
2020/12/28 07:28:59;;;;;;;7.33;4.87;;;;;;;;;;5095803;28;20795;-70
2020/12/28 07:31:25;;;;;;;12.03;4.67;;;;;;;;;;5088775;28;20473;-71
2020/12/28 07:33:51;;;;;;;6.07;4.87;;;;;;;;;;5076026;28;20432;-71
2020/12/28 07:36:25;;;;;;;6.53;4.20;;;;;;;;;;5059471;28;20431;-71
2020/12/28 07:38:51;;;;;;;8.13;4.07;;;;;;;;;;5095455;28;20384;-71
2020/12/28 07:41:18;;;;;;;10.97;4.87;;;;;;;;;;5093288;28;20451;-71
2020/12/28 07:43:48;;;;;;;8.57;5.40;;;;;;;;;;5095139;28;20424;-71
2020/12/28 07:46:32;;;;;;;6.33;4.20;;;;;;;;;;5082607;28;20440;-70
2020/12/28 07:49:07;;;;;;;4.43;3.23;;;;;;;;;;5095393;28;20396;-71
2020/12/28 07:51:37;;;;;;;9.60;4.77;;;;;;;;;;5093062;28;20940;-71
2020/12/28 07:54:12;;;;;;;8.37;4.07;;;;;;;;;;5069977;28;20448;-71
2020/12/28 07:56:46;;;;;;;10.73;4.80;;;;;;;;;;5079085;28;20445;-70
2020/12/28 07:59:12;;;;;;;7.53;4.40;;;;;;;;;;5094957;28;20404;-71
2020/12/28 08:01:43;;;;;;;10.33;4.50;;;;;;;;;;5092987;28;20513;-71
2020/12/28 08:04:10;;;;;;;11.13;4.40;;;;;;;;;;5094856;28;20805;-71
2020/12/28 08:06:37;;;;;;;18.00;4.70;;;;;;;;;;5092732;28;20473;-71
2020/12/28 08:09:04;;;;;;;6.40;3.73;;;;;;;;;;5076568;28;20404;-71
2020/12/28 08:11:30;;;;;;;14.40;5.47;;;;;;;;;;5093259;28;20411;-71
2020/12/28 08:13:57;;;;;;;7.53;4.20;;;;;;;;;;5094676;28;20420;-71
2020/12/28 08:16:23;;;;;;;5.30;4.40;;;;;;;;;;5092666;28;20491;-72
2020/12/28 08:18:49;;;;;;;6.87;4.67;;;;;;;;;;5091306;28;20396;-71
2020/12/28 08:21:15;;;;;;;7.07;4.40;;;;;;;;;;5073080;28;20417;-71
2020/12/28 08:23:49;;;;;;;6.43;4.87;;;;;;;;;;5121605;22;20970;-84
2020/12/28 08:26:16;;;;;;;8.90;4.63;;;;;;;;;;5099987;28;20955;-86
2020/12/28 08:28:45;;;;;;;5.90;3.97;;;;;;;;;;5101524;28;20451;-84
2020/12/28 08:31:11;;;;;;;7.33;3.63;;;;;;;;;;5100020;28;20884;-85
2020/12/28 08:33:37;;;;;;;5.27;3.97;;;;;;;;;;5062608;28;20470;-84
2020/12/28 08:36:03;;;;;;;5.63;4.33;;;;;;;;;;5080927;28;20435;-84
2020/12/28 08:38:30;;;;;;;8.00;3.90;;;;;;;;;;5105422;22;20964;-65
2020/12/28 08:41:03;;;;;;;4.40;4.00;;;;;;;;;;5110972;27;20509;-64
2020/12/28 08:43:30;;;;;;;9.57;4.90;;;;;;;;;;5123563;28;20803;-64
2020/12/28 08:46:03;;;;;;;5.53;4.10;;;;;;;;;;5130941;28;20391;-65
2020/12/28 08:48:29;;;;;;;10.67;4.77;;;;;;;;;;5128880;27;20414;-65
2020/12/28 08:50:55;;;;;;;7.07;4.70;;;;;;;;;;5131055;27;20474;-65
2020/12/28 08:53:22;;;;;;;17.50;5.27;;;;;;;;;;5130777;22;20476;-70
2020/12/28 08:56:01;;;;;;;7.47;4.73;;;;;;;;;;5090279;28;20409;-71
2020/12/28 08:58:27;;;;;;;9.40;4.53;;;;;;;;;;5089371;28;20428;-70
2020/12/28 09:00:53;;;;;;;7.37;4.07;;;;;;;;;;5090570;28;20525;-71
2020/12/28 09:03:19;;;;;;;7.40;3.83;;;;;;;;;;5083296;28;20532;-71
2020/12/28 09:05:45;;;;;;;5.43;3.40;;;;;;;;;;5069111;28;20957;-70
2020/12/28 09:08:11;;;;;;;13.57;4.03;;;;;;;;;;5069010;28;20429;-71
2020/12/28 09:10:37;;;;;;;13.60;4.33;;;;;;;;;;5070283;28;20405;-71
2020/12/28 09:13:03;;;;;;;18.43;6.17;;;;;;;;;;5068838;28;20866;-71
2020/12/28 09:15:29;;;;;;;11.63;4.43;;;;;;;;;;5070019;28;20413;-71
2020/12/28 09:17:55;;;;;;;9.97;5.13;;;;;;;;;;5068822;28;20437;-71
2020/12/28 09:20:21;;;;;;;11.30;4.33;;;;;;;;;;5069808;28;20448;-71
2020/12/28 09:22:47;;;;;;;8.10;4.63;;;;;;;;;;5068790;28;20931;-70
2020/12/28 09:25:13;;;;;;;7.07;4.53;;;;;;;;;;5069844;28;20401;-71
2020/12/28 09:27:39;;;;;;;6.40;3.80;;;;;;;;;;5069014;28;20417;-71
2020/12/28 09:30:07;;;;;;;7.53;3.20;;;;;;;;;;5069818;28;20406;-71
2020/12/28 09:32:33;;;;;;;6.73;4.73;;;;;;;;;;5068549;28;20835;-70
2020/12/28 09:34:59;;;;;;;8.87;3.93;;;;;;;;;;5068186;28;20445;-71
2020/12/28 09:37:25;;;;;;;5.70;4.13;;;;;;;;;;5067973;28;20433;-70
2020/12/28 09:39:51;;;;;;;10.90;6.80;;;;;;;;;;5067920;28;20822;-71
2020/12/28 09:42:17;;;;;;;10.80;4.50;;;;;;;;;;5068228;28;20393;-70
2020/12/28 09:44:43;;;;;;;7.20;4.00;;;;;;;;;;5069271;28;20457;-71
2020/12/28 09:47:09;;;;;;;8.70;4.67;;;;;;;;;;5068637;28;20401;-70
2020/12/28 09:49:35;;;;;;;7.23;4.00;;;;;;;;;;5069237;28;20835;-71
2020/12/28 09:52:01;;;;;;;12.50;4.43;;;;;;;;;;5059222;28;20412;-70
2020/12/28 09:54:27;;;;;;;6.63;4.13;;;;;;;;;;5052571;28;20830;-70
2020/12/28 09:56:53;;;;;;;7.20;3.90;;;;;;;;;;5053316;28;20919;-70
2020/12/28 09:59:19;;;;;;;6.83;3.70;;;;;;;;;;5068434;28;21031;-71
2020/12/28 10:01:46;;;;;;;9.30;4.83;;;;;;;;;;5074001;28;20433;-71
2020/12/28 10:04:13;;;;;;;5.53;3.97;;;;;;;;;;5056356;28;20445;-69
2020/12/28 10:06:40;;;;;;;4.97;4.30;;;;;;;;;;5056494;28;20403;-71
2020/12/28 10:09:07;;;;;;;6.27;4.07;;;;;;;;;;5054810;28;20775;-70
2020/12/28 10:11:33;;;;;;;7.03;4.20;;;;;;;;;;5054868;28;20520;-70
2020/12/28 10:13:59;;;;;;;8.63;4.10;;;;;;;;;;5055351;28;20436;-71
2020/12/28 10:16:29;;;;;;;6.60;4.20;;;;;;;;;;5054529;28;20464;-70
2020/12/28 10:18:55;;;;;;;10.07;5.60;;;;;;;;;;5055345;28;20489;-71
2020/12/28 10:21:21;;;;;;;7.17;4.93;;;;;;;;;;5054204;28;22953;-70
2020/12/28 10:23:48;;;;;;;12.60;5.13;;;;;;;;;;5055250;28;20465;-71
2020/12/28 10:26:15;;;;;;;11.10;5.97;;;;;;;;;;5053091;28;20765;-70
2020/12/28 10:28:41;;;;;;;11.10;3.80;;;;;;;;;;5055851;28;20406;-71
2020/12/28 10:31:11;;;;;;;12.13;4.40;;;;;;;;;;5054386;28;20477;-69
2020/12/28 10:33:38;;;;;;;9.57;4.80;;;;;;;;;;5054959;28;20430;-70
2020/12/28 10:36:04;;;;;;;14.23;5.13;;;;;;;;;;5053949;28;20413;-71
2020/12/28 10:38:30;;;;;;;10.07;5.43;;;;;;;;;;5054744;28;20475;-71
2020/12/28 10:40:56;;;;;;;12.80;6.03;;;;;;;;;;5055249;28;20450;-70
2020/12/28 10:43:22;;;;;;;11.17;5.20;;;;;;;;;;5053848;28;20804;-73
2020/12/28 10:45:48;;;;;;;7.60;4.80;;;;;;;;;;5054726;28;20920;-71
2020/12/28 10:48:14;;;;;;;10.47;4.30;;;;;;;;;;5053969;28;20956;-70
2020/12/28 10:50:40;;;;;;;5.80;3.97;;;;;;;;;;5053727;28;20414;-71
2020/12/28 10:53:06;;;;;;;9.93;4.63;;;;;;;;;;5053026;28;20463;-71
2020/12/28 10:55:32;;;;;;;8.20;4.43;;;;;;;;;;5052837;28;20429;-69
2020/12/28 10:57:58;;;;;;;8.37;5.00;;;;;;;;;;5063015;28;20527;-70
2020/12/28 11:00:24;;;;;;;7.20;4.67;;;;;;;;;;5053413;28;20809;-69
2020/12/28 11:02:50;;;;;;;8.40;4.50;;;;;;;;;;5050616;28;20426;-68
2020/12/28 11:05:16;;;;;;;7.93;4.88;;;;;;;;;;5053249;28;20969;-68
2020/12/28 11:07:42;;;;;;;21.23;5.70;;;;;;;;;;5053581;28;20176;-68
2020/12/28 11:10:08;;;;;;;8.73;4.90;;;;;;;;;;5052917;28;20416;-71
2020/12/28 11:12:34;;;;;;;11.07;5.70;;;;;;;;;;5054862;28;20590;-69
2020/12/28 11:15:00;;;;;;;16.20;5.17;;;;;;;;;;5052853;28;20449;-68
2020/12/28 11:17:26;;;;;;;10.77;5.33;;;;;;;;;;5049903;28;20418;-71
2020/12/28 11:19:52;;;;;;;9.17;5.30;;;;;;;;;;5053576;28;20453;-72
2020/12/28 11:22:18;;;;;;;9.30;5.13;;;;;;;;;;5052985;28;20422;-72
2020/12/28 11:24:44;;;;;;;8.60;4.67;;;;;;;;;;5053433;28;20966;-72
2020/12/28 11:27:10;;;;;;;10.93;5.73;;;;;;;;;;5053103;28;20418;-71
2020/12/28 11:29:36;;;;;;;8.03;5.20;;;;;;;;;;5053170;28;20409;-72
2020/12/28 11:32:02;;;;;;;8.50;4.60;;;;;;;;;;5052760;28;20466;-71
2020/12/28 11:34:28;;;;;;;18.43;5.30;;;;;;;;;;5053908;28;20417;-71
2020/12/28 11:36:54;;;;;;;9.73;5.60;;;;;;;;;;5052884;28;20422;-71
2020/12/28 11:39:20;;;;;;;8.67;4.97;;;;;;;;;;5053937;28;21019;-71
2020/12/28 11:41:46;;;;;;;22.30;6.20;;;;;;;;;;5053371;28;20450;-72
2020/12/28 11:44:14;;;;;;;7.73;4.67;;;;;;;;;;5053742;28;20418;-72
2020/12/28 11:46:42;;;;;;;8.60;5.90;;;;;;;;;;5052906;28;20420;-72
2020/12/28 11:49:08;;;;;;;6.43;5.10;;;;;;;;;;5053740;28;20398;-71
2020/12/28 11:51:34;;;;;;;9.53;5.87;;;;;;;;;;5063692;28;20467;-75
2020/12/28 11:54:00;;;;;;;7.20;5.07;;;;;;;;;;5053540;28;20456;-72
2020/12/28 11:56:26;;;;;;;10.90;5.67;;;;;;;;;;5053621;28;20395;-71
2020/12/28 11:58:52;;;;;;;7.50;5.97;;;;;;;;;;5049017;28;20436;-71
2020/12/28 12:01:19;;;;;;;10.20;5.37;;;;;;;;;;5053232;28;20421;-71
2020/12/28 12:03:46;;;;;;;8.80;5.17;;;;;;;;;;5052554;28;20496;-71
2020/12/28 12:06:21;;;;;;;10.37;5.37;;;;;;;;;;5053448;28;20772;-71
2020/12/28 12:11:32;;;;;;;8.70;5.53;;;;;;;;;;5053280;28;20894;-71
2020/12/28 12:13:58;;;;;;;7.80;5.80;;;;;;;;;;5051953;28;20457;-71
2020/12/28 12:16:24;;;;;;;10.87;6.50;;;;;;;;;;5062752;28;20827;-71
2020/12/28 12:18:50;;;;;;;17.90;7.17;;;;;;;;;;5053638;28;20788;-71
2020/12/28 12:21:16;;;;;;;9.90;6.10;;;;;;;;;;5053217;28;20408;-72
2020/12/28 12:23:42;;;;;;;9.77;5.67;;;;;;;;;;5052436;28;20450;-71
2020/12/28 12:26:09;;;;;;;8.40;5.20;;;;;;;;;;5052410;28;20784;-71
2020/12/28 12:28:35;;;;;;;14.47;6.10;;;;;;;;;;5052286;28;20436;-71
2020/12/28 12:31:01;;;;;;;13.97;6.43;;;;;;;;;;5052476;28;20410;-71
2020/12/28 12:33:27;;;;;;;8.37;6.47;;;;;;;;;;5052112;28;20899;-71
2020/12/28 12:35:53;;;;;;;9.30;5.60;;;;;;;;;;5053132;28;20451;-72
2020/12/28 12:38:19;;;;;;;11.53;6.70;;;;;;;;;;5052547;28;20418;-72
2020/12/28 12:40:45;;;;;;;8.47;6.30;;;;;;;;;;5053661;28;20934;-71
2020/12/28 12:43:11;;;;;;;8.13;6.37;;;;;;;;;;5051987;28;20938;-71
2020/12/28 12:45:37;;;;;;;12.23;6.97;;;;;;;;;;5053101;28;20402;-71
2020/12/28 12:48:03;;;;;;;17.83;8.00;;;;;;;;;;5052274;28;20426;-71
2020/12/28 12:50:29;;;;;;;14.27;6.57;;;;;;;;;;5053027;28;20400;-72
2020/12/28 12:52:55;;;;;;;10.67;6.40;;;;;;;;;;5050979;28;20652;-72
2020/12/28 12:55:21;;;;;;;16.73;6.60;;;;;;;;;;5052252;28;20410;-71
2020/12/28 12:57:47;;;;;;;13.63;5.43;;;;;;;;;;5051511;28;20922;-80
2020/12/28 13:00:18;;;;;;;11.90;6.03;;;;;;;;;;5049124;28;20500;-72
2020/12/28 13:02:44;;;;;;;14.30;6.77;;;;;;;;;;5050207;28;20424;-75
2020/12/28 13:05:10;;;;;;;12.23;6.50;;;;;;;;;;5052497;28;20472;-72
2020/12/28 13:07:37;;;;;;;13.47;5.70;;;;;;;;;;5051918;28;20458;-73
2020/12/28 13:10:04;;;;;;;9.07;6.50;;;;;;;;;;5053029;28;20913;-75
2020/12/28 13:12:30;;;;;;;10.20;6.00;;;;;;;;;;5052002;28;20422;-74
2020/12/28 13:14:56;;;;;;;8.87;5.93;;;;;;;;;;5052685;28;20453;-73
2020/12/28 13:17:22;;;;;;;13.23;5.67;;;;;;;;;;5053509;28;20437;-72
2020/12/28 13:19:48;;;;;;;10.00;7.10;;;;;;;;;;5051383;28;20522;-74
2020/12/28 13:22:14;;;;;;;13.57;6.47;;;;;;;;;;5052795;28;20469;-73
2020/12/28 13:24:41;;;;;;;6.80;4.90;;;;;;;;;;5051629;28;20444;-74
2020/12/28 13:27:07;;;;;;;10.13;5.73;;;;;;;;;;5055766;28;20409;-75
2020/12/28 13:29:33;;;;;;;13.15;7.53;;;;;;;;;;5054316;28;20439;-75
2020/12/28 13:31:59;;;;;;;8.70;7.63;;;;;;;;;;5057304;28;20490;-73
2020/12/28 13:34:26;;;;;;;10.70;6.70;;;;;;;;;;5048404;28;20446;-74
2020/12/28 13:36:52;;;;;;;13.90;6.60;;;;;;;;;;5052704;28;20428;-73
2020/12/28 13:39:18;;;;;;;8.83;6.47;;;;;;;;;;5052388;28;20457;-74
2020/12/28 13:41:44;;;;;;;9.17;6.10;;;;;;;;;;5055145;28;20422;-74
2020/12/28 13:44:10;;;;;;;12.33;6.33;;;;;;;;;;5054142;28;20465;-73
2020/12/28 13:46:36;;;;;;;12.10;6.07;;;;;;;;;;5055187;28;20433;-74
2020/12/28 13:49:03;;;;;;;10.00;5.90;;;;;;;;;;5054845;28;20429;-74
2020/12/28 13:51:34;;;;;;;9.80;5.60;;;;;;;;;;5054651;28;20433;-73
2020/12/28 13:54:01;;;;;;;7.30;5.67;;;;;;;;;;5053868;28;20937;-74
2020/12/28 13:56:27;;;;;;;6.37;4.03;;;;;;;;;;5055120;28;20478;-73
2020/12/28 13:58:53;;;;;;;9.30;4.20;;;;;;;;;;5054183;28;20433;-75
2020/12/28 14:01:19;;;;;;;7.43;4.90;;;;;;;;;;5054349;28;20445;-74
2020/12/28 14:03:45;;;;;;;9.07;5.00;;;;;;;;;;5053029;28;20460;-75
2020/12/28 14:06:11;;;;;;;9.93;4.97;;;;;;;;;;5055678;28;20421;-76
2020/12/28 14:08:45;;;;;;;7.43;4.60;;;;;;;;;;5056136;28;20429;-78
2020/12/28 14:11:19;;;;;;;7.83;4.27;;;;;;;;;;5056817;28;20426;-74
2020/12/28 14:13:45;;;;;;;9.10;4.03;;;;;;;;;;5050430;28;20453;-74
2020/12/28 14:16:11;;;;;;;4.77;3.77;;;;;;;;;;5055510;28;20425;-74
2020/12/28 14:18:38;;;;;;;6.10;3.27;;;;;;;;;;5054287;28;20469;-74
2020/12/28 14:21:07;;;;;;;4.30;3.57;;;;;;;;;;5054572;28;20449;-74
2020/12/28 14:23:34;;;;;;;9.53;2.93;;;;;;;;;;5052271;28;20519;-74
2020/12/28 14:26:00;;;;;;;3.93;2.70;;;;;;;;;;5055443;28;20505;-73
2020/12/28 14:28:26;;;;;;;4.03;2.10;;;;;;;;;;5054838;28;20450;-76
2020/12/28 14:30:52;;;;;;;6.07;2.77;;;;;;;;;;5055277;28;20472;-75
2020/12/28 14:33:18;;;;;;;2.50;2.20;;;;;;;;;;5053871;28;20536;-76
2020/12/28 14:35:45;;;;;;;6.30;2.73;;;;;;;;;;5055220;28;20401;-75
2020/12/28 14:38:11;;;;;;;3.60;2.33;;;;;;;;;;5054193;28;20437;-74
2020/12/28 14:40:37;;;;;;;3.67;2.50;;;;;;;;;;5054833;28;20810;-74